sensor_id;sensor_type;location;lat;lon;timestamp;P1;durP1;ratioP1;P2;durP2;ratioP2
43694;SDS011;29300;43.560;1.294;2022-11-15T00:01:51;8.75;;;6.10;;
43694;SDS011;29300;43.560;1.294;2022-11-15T00:04:17;9.10;;;6.07;;
43694;SDS011;29300;43.560;1.294;2022-11-15T00:06:43;8.18;;;6.05;;
43694;SDS011;29300;43.560;1.294;2022-11-15T00:09:08;6.85;;;5.53;;
43694;SDS011;29300;43.560;1.294;2022-11-15T00:11:34;7.90;;;5.95;;
43694;SDS011;29300;43.560;1.294;2022-11-15T00:14:00;8.73;;;6.03;;
43694;SDS011;29300;43.560;1.294;2022-11-15T00:16:27;6.90;;;5.80;;
43694;SDS011;29300;43.560;1.294;2022-11-15T00:18:53;7.43;;;5.63;;
43694;SDS011;29300;43.560;1.294;2022-11-15T00:21:18;7.82;;;6.00;;
43694;SDS011;29300;43.560;1.294;2022-11-15T00:23:44;7.10;;;5.85;;
43694;SDS011;29300;43.560;1.294;2022-11-15T00:26:13;8.55;;;5.90;;
43694;SDS011;29300;43.560;1.294;2022-11-15T00:28:40;7.75;;;6.05;;
43694;SDS011;29300;43.560;1.294;2022-11-15T00:31:07;7.38;;;5.47;;
43694;SDS011;29300;43.560;1.294;2022-11-15T00:33:36;8.57;;;5.97;;
43694;SDS011;29300;43.560;1.294;2022-11-15T00:36:02;7.50;;;5.47;;
43694;SDS011;29300;43.560;1.294;2022-11-15T00:38:30;7.30;;;5.57;;
43694;SDS011;29300;43.560;1.294;2022-11-15T00:41:00;8.27;;;6.00;;
43694;SDS011;29300;43.560;1.294;2022-11-15T00:43:26;8.00;;;6.22;;
43694;SDS011;29300;43.560;1.294;2022-11-15T00:45:52;8.73;;;6.20;;
43694;SDS011;29300;43.560;1.294;2022-11-15T00:48:18;7.80;;;5.93;;
43694;SDS011;29300;43.560;1.294;2022-11-15T00:50:44;7.70;;;5.75;;
43694;SDS011;29300;43.560;1.294;2022-11-15T00:53:09;6.93;;;6.20;;
43694;SDS011;29300;43.560;1.294;2022-11-15T00:55:35;7.20;;;5.20;;
43694;SDS011;29300;43.560;1.294;2022-11-15T00:58:01;7.32;;;5.93;;
43694;SDS011;29300;43.560;1.294;2022-11-15T01:00:27;8.00;;;6.30;;
43694;SDS011;29300;43.560;1.294;2022-11-15T01:02:53;8.23;;;5.88;;
43694;SDS011;29300;43.560;1.294;2022-11-15T01:05:18;6.72;;;5.45;;
43694;SDS011;29300;43.560;1.294;2022-11-15T01:07:44;6.95;;;4.65;;
43694;SDS011;29300;43.560;1.294;2022-11-15T01:10:10;7.20;;;5.43;;
43694;SDS011;29300;43.560;1.294;2022-11-15T01:12:36;6.28;;;5.40;;
43694;SDS011;29300;43.560;1.294;2022-11-15T01:15:02;7.05;;;5.97;;
43694;SDS011;29300;43.560;1.294;2022-11-15T01:17:29;8.43;;;5.72;;
43694;SDS011;29300;43.560;1.294;2022-11-15T01:19:55;8.15;;;6.07;;
43694;SDS011;29300;43.560;1.294;2022-11-15T01:22:21;6.38;;;5.22;;
43694;SDS011;29300;43.560;1.294;2022-11-15T01:24:46;8.00;;;6.03;;
43694;SDS011;29300;43.560;1.294;2022-11-15T01:27:14;6.72;;;5.50;;
43694;SDS011;29300;43.560;1.294;2022-11-15T01:29:40;8.30;;;5.50;;
43694;SDS011;29300;43.560;1.294;2022-11-15T01:32:05;7.25;;;6.10;;
43694;SDS011;29300;43.560;1.294;2022-11-15T01:34:31;6.88;;;5.53;;
43694;SDS011;29300;43.560;1.294;2022-11-15T01:36:56;7.15;;;5.35;;
43694;SDS011;29300;43.560;1.294;2022-11-15T01:39:22;6.68;;;5.40;;
43694;SDS011;29300;43.560;1.294;2022-11-15T01:41:48;6.60;;;4.95;;
43694;SDS011;29300;43.560;1.294;2022-11-15T01:44:34;6.82;;;5.68;;
43694;SDS011;29300;43.560;1.294;2022-11-15T01:47:09;6.57;;;5.43;;
43694;SDS011;29300;43.560;1.294;2022-11-15T01:50:02;6.38;;;5.15;;
43694;SDS011;29300;43.560;1.294;2022-11-15T01:52:31;8.82;;;5.75;;
43694;SDS011;29300;43.560;1.294;2022-11-15T01:57:27;6.38;;;5.25;;
43694;SDS011;29300;43.560;1.294;2022-11-15T01:59:53;6.95;;;5.63;;
43694;SDS011;29300;43.560;1.294;2022-11-15T02:02:19;6.28;;;5.05;;
43694;SDS011;29300;43.560;1.294;2022-11-15T02:04:46;7.47;;;5.68;;
43694;SDS011;29300;43.560;1.294;2022-11-15T02:07:14;5.82;;;4.72;;
43694;SDS011;29300;43.560;1.294;2022-11-15T02:09:42;6.85;;;5.78;;
43694;SDS011;29300;43.560;1.294;2022-11-15T02:12:09;7.10;;;5.47;;
43694;SDS011;29300;43.560;1.294;2022-11-15T02:14:37;5.28;;;4.55;;
43694;SDS011;29300;43.560;1.294;2022-11-15T02:28:13;5.65;;;5.05;;
43694;SDS011;29300;43.560;1.294;2022-11-15T02:33:35;5.38;;;4.38;;
43694;SDS011;29300;43.560;1.294;2022-11-15T02:36:14;5.88;;;4.78;;
43694;SDS011;29300;43.560;1.294;2022-11-15T02:38:58;6.38;;;4.55;;
43694;SDS011;29300;43.560;1.294;2022-11-15T02:41:37;6.10;;;4.70;;
43694;SDS011;29300;43.560;1.294;2022-11-15T02:44:05;5.65;;;5.07;;
43694;SDS011;29300;43.560;1.294;2022-11-15T02:49:31;6.32;;;4.70;;
43694;SDS011;29300;43.560;1.294;2022-11-15T02:51:59;4.90;;;4.28;;
43694;SDS011;29300;43.560;1.294;2022-11-15T02:54:25;5.28;;;4.20;;
43694;SDS011;29300;43.560;1.294;2022-11-15T03:07:16;4.00;;;3.53;;
43694;SDS011;29300;43.560;1.294;2022-11-15T03:15:01;4.70;;;4.03;;
43694;SDS011;29300;43.560;1.294;2022-11-15T03:17:35;5.15;;;4.10;;
43694;SDS011;29300;43.560;1.294;2022-11-15T03:20:05;4.65;;;4.22;;
43694;SDS011;29300;43.560;1.294;2022-11-15T03:22:33;4.38;;;3.88;;
43694;SDS011;29300;43.560;1.294;2022-11-15T03:25:04;4.53;;;3.75;;
43694;SDS011;29300;43.560;1.294;2022-11-15T03:27:35;4.90;;;3.90;;
43694;SDS011;29300;43.560;1.294;2022-11-15T03:30:05;5.45;;;3.60;;
43694;SDS011;29300;43.560;1.294;2022-11-15T03:32:49;4.20;;;3.80;;
43694;SDS011;29300;43.560;1.294;2022-11-15T03:35:18;4.93;;;3.67;;
43694;SDS011;29300;43.560;1.294;2022-11-15T03:38:02;4.60;;;3.83;;
43694;SDS011;29300;43.560;1.294;2022-11-15T03:40:58;3.90;;;3.42;;
43694;SDS011;29300;43.560;1.294;2022-11-15T03:43:30;4.25;;;3.85;;
43694;SDS011;29300;43.560;1.294;2022-11-15T03:46:07;4.70;;;3.90;;
43694;SDS011;29300;43.560;1.294;2022-11-15T03:48:39;3.75;;;3.30;;
43694;SDS011;29300;43.560;1.294;2022-11-15T03:51:18;4.57;;;3.63;;
43694;SDS011;29300;43.560;1.294;2022-11-15T03:53:45;4.55;;;3.47;;
43694;SDS011;29300;43.560;1.294;2022-11-15T03:56:11;4.65;;;3.50;;
43694;SDS011;29300;43.560;1.294;2022-11-15T03:58:36;3.50;;;3.20;;
43694;SDS011;29300;43.560;1.294;2022-11-15T04:01:02;4.07;;;3.67;;
43694;SDS011;29300;43.560;1.294;2022-11-15T04:03:28;4.10;;;3.70;;
43694;SDS011;29300;43.560;1.294;2022-11-15T04:05:53;5.68;;;3.97;;
43694;SDS011;29300;43.560;1.294;2022-11-15T04:08:19;4.45;;;3.95;;
43694;SDS011;29300;43.560;1.294;2022-11-15T04:10:45;6.70;;;4.50;;
43694;SDS011;29300;43.560;1.294;2022-11-15T04:13:13;4.35;;;3.95;;
43694;SDS011;29300;43.560;1.294;2022-11-15T04:15:39;5.40;;;3.80;;
43694;SDS011;29300;43.560;1.294;2022-11-15T04:18:04;5.20;;;3.65;;
43694;SDS011;29300;43.560;1.294;2022-11-15T04:20:30;6.47;;;3.95;;
43694;SDS011;29300;43.560;1.294;2022-11-15T04:26:12;4.13;;;3.70;;
43694;SDS011;29300;43.560;1.294;2022-11-15T04:28:43;3.40;;;3.10;;
43694;SDS011;29300;43.560;1.294;2022-11-15T04:31:27;3.97;;;3.20;;
43694;SDS011;29300;43.560;1.294;2022-11-15T04:33:53;5.38;;;3.38;;
43694;SDS011;29300;43.560;1.294;2022-11-15T04:36:19;3.78;;;3.33;;
43694;SDS011;29300;43.560;1.294;2022-11-15T04:39:03;3.58;;;3.22;;
43694;SDS011;29300;43.560;1.294;2022-11-15T04:41:29;4.78;;;3.40;;
43694;SDS011;29300;43.560;1.294;2022-11-15T04:43:55;4.07;;;3.40;;
43694;SDS011;29300;43.560;1.294;2022-11-15T04:46:21;4.57;;;3.10;;
43694;SDS011;29300;43.560;1.294;2022-11-15T04:48:48;4.53;;;3.70;;
43694;SDS011;29300;43.560;1.294;2022-11-15T04:51:14;3.72;;;3.38;;
43694;SDS011;29300;43.560;1.294;2022-11-15T04:53:40;3.95;;;3.00;;
43694;SDS011;29300;43.560;1.294;2022-11-15T04:56:06;5.90;;;3.45;;
43694;SDS011;29300;43.560;1.294;2022-11-15T04:58:31;4.43;;;3.47;;
43694;SDS011;29300;43.560;1.294;2022-11-15T05:00:57;4.95;;;3.00;;
43694;SDS011;29300;43.560;1.294;2022-11-15T05:03:23;4.55;;;3.45;;
43694;SDS011;29300;43.560;1.294;2022-11-15T05:06:07;3.72;;;3.35;;
43694;SDS011;29300;43.560;1.294;2022-11-15T05:08:32;4.95;;;3.95;;
43694;SDS011;29300;43.560;1.294;2022-11-15T05:10:58;5.68;;;3.83;;
43694;SDS011;29300;43.560;1.294;2022-11-15T05:13:24;6.18;;;4.85;;
43694;SDS011;29300;43.560;1.294;2022-11-15T05:15:49;4.72;;;4.15;;
43694;SDS011;29300;43.560;1.294;2022-11-15T05:18:15;5.85;;;4.43;;
43694;SDS011;29300;43.560;1.294;2022-11-15T05:20:41;7.10;;;5.35;;
43694;SDS011;29300;43.560;1.294;2022-11-15T05:23:06;6.40;;;4.88;;
43694;SDS011;29300;43.560;1.294;2022-11-15T05:25:32;5.25;;;4.68;;
43694;SDS011;29300;43.560;1.294;2022-11-15T05:27:58;5.95;;;5.35;;
43694;SDS011;29300;43.560;1.294;2022-11-15T05:30:24;5.90;;;4.80;;
43694;SDS011;29300;43.560;1.294;2022-11-15T05:32:49;9.65;;;5.53;;
43694;SDS011;29300;43.560;1.294;2022-11-15T05:35:20;6.70;;;5.15;;
43694;SDS011;29300;43.560;1.294;2022-11-15T05:37:54;6.03;;;5.15;;
43694;SDS011;29300;43.560;1.294;2022-11-15T05:40:20;6.28;;;4.90;;
43694;SDS011;29300;43.560;1.294;2022-11-15T05:42:46;5.07;;;4.57;;
43694;SDS011;29300;43.560;1.294;2022-11-15T05:45:12;7.55;;;5.70;;
43694;SDS011;29300;43.560;1.294;2022-11-15T05:47:38;6.15;;;5.32;;
43694;SDS011;29300;43.560;1.294;2022-11-15T05:50:05;7.93;;;5.32;;
43694;SDS011;29300;43.560;1.294;2022-11-15T05:52:32;5.90;;;5.28;;
43694;SDS011;29300;43.560;1.294;2022-11-15T05:55:02;6.07;;;5.43;;
43694;SDS011;29300;43.560;1.294;2022-11-15T05:57:29;5.75;;;4.45;;
43694;SDS011;29300;43.560;1.294;2022-11-15T05:59:55;7.45;;;5.53;;
43694;SDS011;29300;43.560;1.294;2022-11-15T06:02:20;6.22;;;5.10;;
43694;SDS011;29300;43.560;1.294;2022-11-15T06:04:46;5.85;;;4.40;;
43694;SDS011;29300;43.560;1.294;2022-11-15T06:07:12;5.80;;;4.38;;
43694;SDS011;29300;43.560;1.294;2022-11-15T06:09:37;5.75;;;4.95;;
43694;SDS011;29300;43.560;1.294;2022-11-15T06:12:03;5.75;;;4.80;;
43694;SDS011;29300;43.560;1.294;2022-11-15T06:14:29;6.38;;;5.32;;
43694;SDS011;29300;43.560;1.294;2022-11-15T06:16:55;6.18;;;4.80;;
43694;SDS011;29300;43.560;1.294;2022-11-15T06:19:20;5.43;;;4.93;;
43694;SDS011;29300;43.560;1.294;2022-11-15T06:21:46;6.13;;;5.22;;
43694;SDS011;29300;43.560;1.294;2022-11-15T06:24:12;6.38;;;4.75;;
43694;SDS011;29300;43.560;1.294;2022-11-15T06:26:37;6.30;;;5.70;;
43694;SDS011;29300;43.560;1.294;2022-11-15T06:29:03;6.75;;;5.28;;
43694;SDS011;29300;43.560;1.294;2022-11-15T06:31:29;5.82;;;4.85;;
43694;SDS011;29300;43.560;1.294;2022-11-15T06:33:55;5.80;;;5.20;;
43694;SDS011;29300;43.560;1.294;2022-11-15T06:36:21;8.25;;;5.85;;
43694;SDS011;29300;43.560;1.294;2022-11-15T06:38:47;6.32;;;5.72;;
43694;SDS011;29300;43.560;1.294;2022-11-15T06:41:13;6.40;;;5.32;;
43694;SDS011;29300;43.560;1.294;2022-11-15T06:43:39;11.65;;;6.35;;
43694;SDS011;29300;43.560;1.294;2022-11-15T06:46:05;9.02;;;6.40;;
43694;SDS011;29300;43.560;1.294;2022-11-15T06:48:32;7.90;;;5.85;;
43694;SDS011;29300;43.560;1.294;2022-11-15T06:50:59;7.07;;;6.20;;
43694;SDS011;29300;43.560;1.294;2022-11-15T06:53:26;8.05;;;6.28;;
43694;SDS011;29300;43.560;1.294;2022-11-15T06:55:52;6.10;;;5.50;;
43694;SDS011;29300;43.560;1.294;2022-11-15T06:58:18;8.30;;;6.47;;
43694;SDS011;29300;43.560;1.294;2022-11-15T07:00:45;8.27;;;5.97;;
43694;SDS011;29300;43.560;1.294;2022-11-15T07:03:11;7.45;;;5.57;;
43694;SDS011;29300;43.560;1.294;2022-11-15T07:05:37;6.88;;;5.57;;
43694;SDS011;29300;43.560;1.294;2022-11-15T07:08:02;7.05;;;5.93;;
43694;SDS011;29300;43.560;1.294;2022-11-15T07:10:29;8.27;;;6.28;;
43694;SDS011;29300;43.560;1.294;2022-11-15T07:12:55;6.25;;;5.22;;
43694;SDS011;29300;43.560;1.294;2022-11-15T07:15:22;7.78;;;6.00;;
43694;SDS011;29300;43.560;1.294;2022-11-15T07:17:49;6.82;;;5.18;;
43694;SDS011;29300;43.560;1.294;2022-11-15T07:20:16;6.68;;;5.47;;
43694;SDS011;29300;43.560;1.294;2022-11-15T07:22:42;6.35;;;5.50;;
43694;SDS011;29300;43.560;1.294;2022-11-15T07:25:10;8.05;;;6.10;;
43694;SDS011;29300;43.560;1.294;2022-11-15T07:27:36;6.93;;;5.80;;
43694;SDS011;29300;43.560;1.294;2022-11-15T07:30:03;8.15;;;5.88;;
43694;SDS011;29300;43.560;1.294;2022-11-15T07:32:29;7.40;;;5.20;;
43694;SDS011;29300;43.560;1.294;2022-11-15T07:34:55;5.85;;;4.75;;
43694;SDS011;29300;43.560;1.294;2022-11-15T07:37:21;6.95;;;5.55;;
43694;SDS011;29300;43.560;1.294;2022-11-15T07:39:47;5.15;;;4.65;;
43694;SDS011;29300;43.560;1.294;2022-11-15T07:42:12;6.40;;;5.80;;
43694;SDS011;29300;43.560;1.294;2022-11-15T07:44:57;8.15;;;5.35;;
43694;SDS011;29300;43.560;1.294;2022-11-15T07:47:22;10.13;;;6.32;;
43694;SDS011;29300;43.560;1.294;2022-11-15T07:49:48;6.75;;;5.72;;
43694;SDS011;29300;43.560;1.294;2022-11-15T07:52:14;8.68;;;6.00;;
43694;SDS011;29300;43.560;1.294;2022-11-15T07:54:39;6.72;;;5.85;;
43694;SDS011;29300;43.560;1.294;2022-11-15T07:57:05;6.43;;;5.72;;
43694;SDS011;29300;43.560;1.294;2022-11-15T07:59:32;8.13;;;5.15;;
43694;SDS011;29300;43.560;1.294;2022-11-15T08:01:59;6.20;;;5.28;;
43694;SDS011;29300;43.560;1.294;2022-11-15T08:04:25;7.13;;;5.30;;
43694;SDS011;29300;43.560;1.294;2022-11-15T08:06:51;5.68;;;5.05;;
43694;SDS011;29300;43.560;1.294;2022-11-15T08:09:16;5.60;;;4.93;;
43694;SDS011;29300;43.560;1.294;2022-11-15T08:11:42;5.57;;;5.07;;
43694;SDS011;29300;43.560;1.294;2022-11-15T08:14:08;7.03;;;5.35;;
43694;SDS011;29300;43.560;1.294;2022-11-15T08:16:33;6.03;;;5.43;;
43694;SDS011;29300;43.560;1.294;2022-11-15T08:18:59;6.55;;;5.15;;
43694;SDS011;29300;43.560;1.294;2022-11-15T08:21:25;7.18;;;5.40;;
43694;SDS011;29300;43.560;1.294;2022-11-15T08:23:50;7.13;;;5.13;;
43694;SDS011;29300;43.560;1.294;2022-11-15T08:26:16;7.53;;;5.45;;
43694;SDS011;29300;43.560;1.294;2022-11-15T08:28:42;9.05;;;5.40;;
43694;SDS011;29300;43.560;1.294;2022-11-15T08:31:14;6.20;;;5.57;;
43694;SDS011;29300;43.560;1.294;2022-11-15T08:33:42;7.80;;;6.18;;
43694;SDS011;29300;43.560;1.294;2022-11-15T08:36:11;5.80;;;5.18;;
43694;SDS011;29300;43.560;1.294;2022-11-15T08:38:39;7.43;;;5.93;;
43694;SDS011;29300;43.560;1.294;2022-11-15T08:41:05;6.35;;;5.75;;
43694;SDS011;29300;43.560;1.294;2022-11-15T08:43:31;6.45;;;5.65;;
43694;SDS011;29300;43.560;1.294;2022-11-15T08:45:57;6.22;;;5.63;;
43694;SDS011;29300;43.560;1.294;2022-11-15T08:48:23;6.82;;;6.13;;
43694;SDS011;29300;43.560;1.294;2022-11-15T08:50:53;10.15;;;7.18;;
43694;SDS011;29300;43.560;1.294;2022-11-15T08:53:21;8.85;;;6.13;;
43694;SDS011;29300;43.560;1.294;2022-11-15T08:55:47;8.13;;;6.88;;
43694;SDS011;29300;43.560;1.294;2022-11-15T08:58:13;7.18;;;5.82;;
43694;SDS011;29300;43.560;1.294;2022-11-15T09:00:38;10.98;;;7.63;;
43694;SDS011;29300;43.560;1.294;2022-11-15T09:03:05;7.68;;;6.22;;
43694;SDS011;29300;43.560;1.294;2022-11-15T09:05:31;6.82;;;6.22;;
43694;SDS011;29300;43.560;1.294;2022-11-15T09:07:56;7.28;;;6.28;;
43694;SDS011;29300;43.560;1.294;2022-11-15T09:10:22;7.30;;;6.60;;
43694;SDS011;29300;43.560;1.294;2022-11-15T09:12:49;8.30;;;6.68;;
43694;SDS011;29300;43.560;1.294;2022-11-15T09:15:15;7.53;;;6.18;;
43694;SDS011;29300;43.560;1.294;2022-11-15T09:17:41;7.50;;;6.28;;
43694;SDS011;29300;43.560;1.294;2022-11-15T09:20:07;6.38;;;5.78;;
43694;SDS011;29300;43.560;1.294;2022-11-15T09:22:34;6.95;;;6.28;;
43694;SDS011;29300;43.560;1.294;2022-11-15T09:24:59;9.30;;;6.57;;
43694;SDS011;29300;43.560;1.294;2022-11-15T09:27:29;7.13;;;6.28;;
43694;SDS011;29300;43.560;1.294;2022-11-15T09:29:56;5.97;;;5.20;;
43694;SDS011;29300;43.560;1.294;2022-11-15T09:32:22;6.25;;;5.65;;
43694;SDS011;29300;43.560;1.294;2022-11-15T09:34:49;6.53;;;5.72;;
43694;SDS011;29300;43.560;1.294;2022-11-15T09:37:15;6.15;;;5.40;;
43694;SDS011;29300;43.560;1.294;2022-11-15T09:39:41;6.15;;;5.05;;
43694;SDS011;29300;43.560;1.294;2022-11-15T09:50:53;5.55;;;5.03;;
43694;SDS011;29300;43.560;1.294;2022-11-15T09:54:25;5.03;;;4.60;;
43694;SDS011;29300;43.560;1.294;2022-11-15T09:56:25;5.88;;;4.93;;
43694;SDS011;29300;43.560;1.294;2022-11-15T10:04:27;6.20;;;5.60;;
43694;SDS011;29300;43.560;1.294;2022-11-15T10:06:56;7.85;;;5.50;;
43694;SDS011;29300;43.560;1.294;2022-11-15T10:09:31;5.93;;;5.35;;
43694;SDS011;29300;43.560;1.294;2022-11-15T10:12:07;6.65;;;5.57;;
43694;SDS011;29300;43.560;1.294;2022-11-15T10:14:34;5.55;;;4.82;;
43694;SDS011;29300;43.560;1.294;2022-11-15T10:25:09;6.13;;;5.18;;
43694;SDS011;29300;43.560;1.294;2022-11-15T10:27:38;5.63;;;5.13;;
43694;SDS011;29300;43.560;1.294;2022-11-15T10:30:15;7.82;;;5.57;;
43694;SDS011;29300;43.560;1.294;2022-11-15T10:32:43;7.13;;;5.65;;
43694;SDS011;29300;43.560;1.294;2022-11-15T10:37:50;5.45;;;4.93;;
43694;SDS011;29300;43.560;1.294;2022-11-15T10:40:18;5.28;;;4.47;;
43694;SDS011;29300;43.560;1.294;2022-11-15T10:42:48;5.28;;;4.82;;
43694;SDS011;29300;43.560;1.294;2022-11-15T10:45:34;5.18;;;4.78;;
43694;SDS011;29300;43.560;1.294;2022-11-15T10:50:38;5.05;;;4.55;;
43694;SDS011;29300;43.560;1.294;2022-11-15T10:53:51;5.03;;;4.60;;
43694;SDS011;29300;43.560;1.294;2022-11-15T10:55:58;4.90;;;4.50;;
43694;SDS011;29300;43.560;1.294;2022-11-15T11:01:19;5.60;;;5.07;;
43694;SDS011;29300;43.560;1.294;2022-11-15T11:04:03;4.30;;;3.90;;
43694;SDS011;29300;43.560;1.294;2022-11-15T11:06:46;4.10;;;3.70;;
43694;SDS011;29300;43.560;1.294;2022-11-15T11:09:47;4.20;;;3.45;;
43694;SDS011;29300;43.560;1.294;2022-11-15T11:12:11;4.55;;;4.15;;
43694;SDS011;29300;43.560;1.294;2022-11-15T11:14:38;4.63;;;4.22;;
43694;SDS011;29300;43.560;1.294;2022-11-15T11:20:02;4.85;;;4.43;;
43694;SDS011;29300;43.560;1.294;2022-11-15T11:23:03;5.60;;;4.28;;
43694;SDS011;29300;43.560;1.294;2022-11-15T11:25:42;4.68;;;4.22;;
43694;SDS011;29300;43.560;1.294;2022-11-15T11:28:29;4.95;;;4.25;;
43694;SDS011;29300;43.560;1.294;2022-11-15T11:36:49;5.45;;;4.70;;
43694;SDS011;29300;43.560;1.294;2022-11-15T11:42:30;4.80;;;4.40;;
43694;SDS011;29300;43.560;1.294;2022-11-15T11:47:39;4.50;;;4.05;;
43694;SDS011;29300;43.560;1.294;2022-11-15T11:50:19;4.88;;;4.38;;
43694;SDS011;29300;43.560;1.294;2022-11-15T11:52:58;4.50;;;4.10;;
43694;SDS011;29300;43.560;1.294;2022-11-15T11:58:12;4.57;;;4.10;;
43694;SDS011;29300;43.560;1.294;2022-11-15T12:00:52;4.38;;;4.07;;
43694;SDS011;29300;43.560;1.294;2022-11-15T12:03:28;4.35;;;4.00;;
43694;SDS011;29300;43.560;1.294;2022-11-15T12:05:59;4.32;;;3.78;;
43694;SDS011;29300;43.560;1.294;2022-11-15T12:08:46;5.45;;;4.20;;
43694;SDS011;29300;43.560;1.294;2022-11-15T12:11:20;4.60;;;4.20;;
43694;SDS011;29300;43.560;1.294;2022-11-15T12:14:21;6.47;;;3.80;;
43694;SDS011;29300;43.560;1.294;2022-11-15T12:16:51;4.20;;;3.80;;
43694;SDS011;29300;43.560;1.294;2022-11-15T12:19:17;5.32;;;3.92;;
43694;SDS011;29300;43.560;1.294;2022-11-15T12:24:28;4.65;;;4.25;;
43694;SDS011;29300;43.560;1.294;2022-11-15T12:26:59;6.05;;;4.47;;
43694;SDS011;29300;43.560;1.294;2022-11-15T12:29:43;5.40;;;4.90;;
43694;SDS011;29300;43.560;1.294;2022-11-15T12:34:49;8.65;;;4.80;;
43694;SDS011;29300;43.560;1.294;2022-11-15T12:38:01;5.90;;;4.75;;
43694;SDS011;29300;43.560;1.294;2022-11-15T12:40:24;5.53;;;4.60;;
43694;SDS011;29300;43.560;1.294;2022-11-15T12:45:39;4.93;;;4.43;;
43694;SDS011;29300;43.560;1.294;2022-11-15T12:56:35;4.80;;;3.80;;
43694;SDS011;29300;43.560;1.294;2022-11-15T13:04:21;6.60;;;4.75;;
43694;SDS011;29300;43.560;1.294;2022-11-15T13:12:00;4.32;;;3.83;;
43694;SDS011;29300;43.560;1.294;2022-11-15T13:14:45;4.82;;;3.80;;
43694;SDS011;29300;43.560;1.294;2022-11-15T13:19:45;4.22;;;3.50;;
43694;SDS011;29300;43.560;1.294;2022-11-15T13:22:13;4.05;;;3.67;;
43694;SDS011;29300;43.560;1.294;2022-11-15T13:24:58;4.15;;;3.80;;
43694;SDS011;29300;43.560;1.294;2022-11-15T13:27:26;3.97;;;3.65;;
43694;SDS011;29300;43.560;1.294;2022-11-15T13:29:52;4.07;;;3.78;;
43694;SDS011;29300;43.560;1.294;2022-11-15T13:32:18;4.72;;;3.85;;
43694;SDS011;29300;43.560;1.294;2022-11-15T13:34:46;4.53;;;4.13;;
43694;SDS011;29300;43.560;1.294;2022-11-15T13:39:45;4.93;;;4.13;;
43694;SDS011;29300;43.560;1.294;2022-11-15T13:42:15;3.83;;;3.53;;
43694;SDS011;29300;43.560;1.294;2022-11-15T13:44:58;4.55;;;3.95;;
43694;SDS011;29300;43.560;1.294;2022-11-15T13:47:27;4.13;;;3.72;;
43694;SDS011;29300;43.560;1.294;2022-11-15T13:49:56;3.95;;;3.53;;
43694;SDS011;29300;43.560;1.294;2022-11-15T13:52:22;4.55;;;4.15;;
43694;SDS011;29300;43.560;1.294;2022-11-15T13:55:04;4.07;;;3.60;;
43694;SDS011;29300;43.560;1.294;2022-11-15T14:03:05;6.88;;;3.95;;
43694;SDS011;29300;43.560;1.294;2022-11-15T14:05:32;4.43;;;4.03;;
43694;SDS011;29300;43.560;1.294;2022-11-15T14:08:03;4.60;;;4.05;;
43694;SDS011;29300;43.560;1.294;2022-11-15T14:10:45;4.75;;;4.32;;
43694;SDS011;29300;43.560;1.294;2022-11-15T14:13:27;4.28;;;3.90;;
43694;SDS011;29300;43.560;1.294;2022-11-15T14:21:10;4.68;;;3.65;;
43694;SDS011;29300;43.560;1.294;2022-11-15T14:23:36;4.15;;;3.75;;
43694;SDS011;29300;43.560;1.294;2022-11-15T14:26:01;4.13;;;3.72;;
43694;SDS011;29300;43.560;1.294;2022-11-15T14:30:55;4.57;;;4.00;;
43694;SDS011;29300;43.560;1.294;2022-11-15T14:33:30;3.70;;;3.40;;
43694;SDS011;29300;43.560;1.294;2022-11-15T14:35:56;4.15;;;3.75;;
43694;SDS011;29300;43.560;1.294;2022-11-15T14:38:27;4.22;;;3.70;;
43694;SDS011;29300;43.560;1.294;2022-11-15T14:40:53;4.43;;;3.58;;
43694;SDS011;29300;43.560;1.294;2022-11-15T14:43:20;4.22;;;3.83;;
43694;SDS011;29300;43.560;1.294;2022-11-15T14:45:46;4.28;;;3.88;;
43694;SDS011;29300;43.560;1.294;2022-11-15T14:48:12;3.92;;;3.63;;
43694;SDS011;29300;43.560;1.294;2022-11-15T14:50:38;4.30;;;3.90;;
43694;SDS011;29300;43.560;1.294;2022-11-15T14:53:04;4.18;;;3.78;;
43694;SDS011;29300;43.560;1.294;2022-11-15T14:55:33;4.43;;;3.85;;
43694;SDS011;29300;43.560;1.294;2022-11-15T14:58:04;4.05;;;3.72;;
43694;SDS011;29300;43.560;1.294;2022-11-15T15:00:33;4.57;;;4.15;;
43694;SDS011;29300;43.560;1.294;2022-11-15T15:03:00;4.78;;;4.30;;
43694;SDS011;29300;43.560;1.294;2022-11-15T15:05:34;5.63;;;4.30;;
43694;SDS011;29300;43.560;1.294;2022-11-15T15:08:04;4.82;;;4.07;;
43694;SDS011;29300;43.560;1.294;2022-11-15T15:10:32;4.35;;;3.95;;
43694;SDS011;29300;43.560;1.294;2022-11-15T15:13:03;4.32;;;3.90;;
43694;SDS011;29300;43.560;1.294;2022-11-15T15:15:31;4.50;;;4.10;;
43694;SDS011;29300;43.560;1.294;2022-11-15T15:17:59;4.57;;;4.18;;
43694;SDS011;29300;43.560;1.294;2022-11-15T15:20:25;4.93;;;4.53;;
43694;SDS011;29300;43.560;1.294;2022-11-15T15:22:50;4.82;;;4.43;;
43694;SDS011;29300;43.560;1.294;2022-11-15T15:25:30;4.80;;;4.38;;
43694;SDS011;29300;43.560;1.294;2022-11-15T15:30:24;4.50;;;3.80;;
43694;SDS011;29300;43.560;1.294;2022-11-15T15:32:51;4.43;;;4.03;;
43694;SDS011;29300;43.560;1.294;2022-11-15T15:35:17;4.47;;;4.07;;
43694;SDS011;29300;43.560;1.294;2022-11-15T15:37:44;4.60;;;4.20;;
43694;SDS011;29300;43.560;1.294;2022-11-15T15:40:12;5.30;;;4.25;;
43694;SDS011;29300;43.560;1.294;2022-11-15T15:42:38;4.40;;;4.00;;
43694;SDS011;29300;43.560;1.294;2022-11-15T15:45:04;4.07;;;3.65;;
43694;SDS011;29300;43.560;1.294;2022-11-15T15:47:30;4.50;;;4.10;;
43694;SDS011;29300;43.560;1.294;2022-11-15T15:49:56;5.75;;;3.85;;
43694;SDS011;29300;43.560;1.294;2022-11-15T15:52:22;4.38;;;3.95;;
43694;SDS011;29300;43.560;1.294;2022-11-15T15:54:47;6.47;;;4.50;;
43694;SDS011;29300;43.560;1.294;2022-11-15T15:57:13;4.43;;;3.97;;
43694;SDS011;29300;43.560;1.294;2022-11-15T15:59:40;4.03;;;3.63;;
43694;SDS011;29300;43.560;1.294;2022-11-15T16:02:06;4.43;;;4.03;;
43694;SDS011;29300;43.560;1.294;2022-11-15T16:04:33;5.07;;;4.03;;
43694;SDS011;29300;43.560;1.294;2022-11-15T16:06:59;5.10;;;4.55;;
43694;SDS011;29300;43.560;1.294;2022-11-15T16:09:25;5.07;;;4.57;;
43694;SDS011;29300;43.560;1.294;2022-11-15T16:12:10;4.70;;;4.30;;
43694;SDS011;29300;43.560;1.294;2022-11-15T16:14:36;7.35;;;4.45;;
43694;SDS011;29300;43.560;1.294;2022-11-15T16:17:02;5.85;;;4.68;;
43694;SDS011;29300;43.560;1.294;2022-11-15T16:19:28;5.32;;;4.70;;
43694;SDS011;29300;43.560;1.294;2022-11-15T16:21:54;6.00;;;4.55;;
43694;SDS011;29300;43.560;1.294;2022-11-15T16:24:20;5.38;;;4.72;;
43694;SDS011;29300;43.560;1.294;2022-11-15T16:26:46;5.18;;;4.68;;
43694;SDS011;29300;43.560;1.294;2022-11-15T16:29:13;5.00;;;4.60;;
43694;SDS011;29300;43.560;1.294;2022-11-15T16:31:39;5.00;;;4.57;;
43694;SDS011;29300;43.560;1.294;2022-11-15T16:34:04;4.53;;;3.90;;
43694;SDS011;29300;43.560;1.294;2022-11-15T16:36:32;5.82;;;4.72;;
43694;SDS011;29300;43.560;1.294;2022-11-15T16:38:59;5.22;;;4.72;;
43694;SDS011;29300;43.560;1.294;2022-11-15T16:41:28;5.13;;;4.65;;
43694;SDS011;29300;43.560;1.294;2022-11-15T16:43:54;5.40;;;4.90;;
43694;SDS011;29300;43.560;1.294;2022-11-15T16:46:23;6.53;;;5.07;;
43694;SDS011;29300;43.560;1.294;2022-11-15T16:48:50;5.25;;;4.68;;
43694;SDS011;29300;43.560;1.294;2022-11-15T16:51:20;5.70;;;4.68;;
43694;SDS011;29300;43.560;1.294;2022-11-15T16:53:46;6.78;;;5.07;;
43694;SDS011;29300;43.560;1.294;2022-11-15T16:58:44;6.47;;;4.63;;
43694;SDS011;29300;43.560;1.294;2022-11-15T17:01:43;7.40;;;4.90;;
43694;SDS011;29300;43.560;1.294;2022-11-15T17:04:11;6.40;;;5.00;;
43694;SDS011;29300;43.560;1.294;2022-11-15T17:06:38;5.60;;;4.85;;
43694;SDS011;29300;43.560;1.294;2022-11-15T17:09:05;5.20;;;4.53;;
43694;SDS011;29300;43.560;1.294;2022-11-15T17:11:35;5.10;;;4.68;;
43694;SDS011;29300;43.560;1.294;2022-11-15T17:14:01;4.80;;;4.35;;
43694;SDS011;29300;43.560;1.294;2022-11-15T17:16:26;5.70;;;5.07;;